sensor_id;sensor_type;location;lat;lon;timestamp;temperature;humidity
43842;DHT22;29495;49.970;20.842;2023-08-31T04:58:32;17.40;99.90
43842;DHT22;29495;49.970;20.842;2023-08-31T05:00:58;17.20;99.90
43842;DHT22;29495;49.970;20.842;2023-08-31T05:03:24;17.40;99.90
43842;DHT22;29495;49.970;20.842;2023-08-31T05:05:50;17.30;99.90
43842;DHT22;29495;49.970;20.842;2023-08-31T05:08:16;17.50;99.90
43842;DHT22;29495;49.970;20.842;2023-08-31T05:10:42;17.50;99.90
43842;DHT22;29495;49.970;20.842;2023-08-31T05:13:14;17.60;99.90
43842;DHT22;29495;49.970;20.842;2023-08-31T05:15:40;17.60;99.90
43842;DHT22;29495;49.970;20.842;2023-08-31T05:18:06;17.70;99.90
43842;DHT22;29495;49.970;20.842;2023-08-31T05:20:34;17.60;99.90
43842;DHT22;29495;49.970;20.842;2023-08-31T05:23:00;17.70;99.90
43842;DHT22;29495;49.970;20.842;2023-08-31T05:25:26;17.70;99.90
43842;DHT22;29495;49.970;20.842;2023-08-31T05:27:52;17.80;99.90
43842;DHT22;29495;49.970;20.842;2023-08-31T05:30:18;17.90;99.90
43842;DHT22;29495;49.970;20.842;2023-08-31T05:32:44;17.90;99.90
43842;DHT22;29495;49.970;20.842;2023-08-31T05:35:10;17.90;99.90
43842;DHT22;29495;49.970;20.842;2023-08-31T05:37:36;17.90;99.90
43842;DHT22;29495;49.970;20.842;2023-08-31T05:40:03;17.80;99.90
43842;DHT22;29495;49.970;20.842;2023-08-31T05:42:32;17.90;99.90
43842;DHT22;29495;49.970;20.842;2023-08-31T05:44:58;17.90;99.90
43842;DHT22;29495;49.970;20.842;2023-08-31T05:47:30;17.90;99.90
43842;DHT22;29495;49.970;20.842;2023-08-31T05:49:57;17.90;99.90
43842;DHT22;29495;49.970;20.842;2023-08-31T05:52:23;17.90;99.90
43842;DHT22;29495;49.970;20.842;2023-08-31T05:54:49;17.90;99.90
43842;DHT22;29495;49.970;20.842;2023-08-31T05:57:19;17.90;99.90
43842;DHT22;29495;49.970;20.842;2023-08-31T05:59:45;17.90;99.90
43842;DHT22;29495;49.970;20.842;2023-08-31T06:11:16;18.20;99.90
43842;DHT22;29495;49.970;20.842;2023-08-31T06:13:55;18.20;99.90
43842;DHT22;29495;49.970;20.842;2023-08-31T06:16:22;18.20;99.90
43842;DHT22;29495;49.970;20.842;2023-08-31T06:18:49;18.30;99.90
43842;DHT22;29495;49.970;20.842;2023-08-31T06:21:15;18.50;99.90
43842;DHT22;29495;49.970;20.842;2023-08-31T06:23:41;18.50;99.90
43842;DHT22;29495;49.970;20.842;2023-08-31T06:26:07;18.50;99.90
43842;DHT22;29495;49.970;20.842;2023-08-31T06:28:39;18.80;99.90
43842;DHT22;29495;49.970;20.842;2023-08-31T06:31:31;19.10;99.90
43842;DHT22;29495;49.970;20.842;2023-08-31T06:34:03;19.30;99.90
43842;DHT22;29495;49.970;20.842;2023-08-31T06:36:44;19.60;99.90
43842;DHT22;29495;49.970;20.842;2023-08-31T06:39:15;19.80;99.90
43842;DHT22;29495;49.970;20.842;2023-08-31T06:41:41;19.70;99.90
43842;DHT22;29495;49.970;20.842;2023-08-31T06:44:10;20.00;99.90
43842;DHT22;29495;49.970;20.842;2023-08-31T06:46:39;20.10;99.90
43842;DHT22;29495;49.970;20.842;2023-08-31T06:49:05;20.10;99.90
43842;DHT22;29495;49.970;20.842;2023-08-31T06:51:34;20.20;99.90
43842;DHT22;29495;49.970;20.842;2023-08-31T06:54:00;20.00;99.90
43842;DHT22;29495;49.970;20.842;2023-08-31T06:57:16;20.20;99.90
43842;DHT22;29495;49.970;20.842;2023-08-31T07:00:07;20.10;99.90
43842;DHT22;29495;49.970;20.842;2023-08-31T07:02:37;20.10;99.90
43842;DHT22;29495;49.970;20.842;2023-08-31T07:05:32;19.80;99.90
43842;DHT22;29495;49.970;20.842;2023-08-31T07:08:20;19.70;99.90
43842;DHT22;29495;49.970;20.842;2023-08-31T07:11:23;19.70;99.90
43842;DHT22;29495;49.970;20.842;2023-08-31T07:13:49;19.90;99.90
43842;DHT22;29495;49.970;20.842;2023-08-31T07:16:17;19.80;99.90
43842;DHT22;29495;49.970;20.842;2023-08-31T07:18:43;19.80;99.90
43842;DHT22;29495;49.970;20.842;2023-08-31T07:21:09;19.80;99.90
43842;DHT22;29495;49.970;20.842;2023-08-31T07:23:35;20.00;99.90
43842;DHT22;29495;49.970;20.842;2023-08-31T07:26:01;19.70;99.90
43842;DHT22;29495;49.970;20.842;2023-08-31T07:28:30;20.10;99.90
43842;DHT22;29495;49.970;20.842;2023-08-31T07:31:03;20.20;99.90
43842;DHT22;29495;49.970;20.842;2023-08-31T07:33:31;20.10;99.90
43842;DHT22;29495;49.970;20.842;2023-08-31T07:36:01;20.10;99.90
43842;DHT22;29495;49.970;20.842;2023-08-31T07:38:30;20.20;99.90
43842;DHT22;29495;49.970;20.842;2023-08-31T07:40:56;20.10;99.90
43842;DHT22;29495;49.970;20.842;2023-08-31T07:43:22;20.20;99.90
43842;DHT22;29495;49.970;20.842;2023-08-31T07:45:49;20.30;99.90
43842;DHT22;29495;49.970;20.842;2023-08-31T07:48:15;20.30;99.90
43842;DHT22;29495;49.970;20.842;2023-08-31T07:54:23;20.70;99.90
43842;DHT22;29495;49.970;20.842;2023-08-31T07:57:04;21.10;99.90
43842;DHT22;29495;49.970;20.842;2023-08-31T08:24:14;20.70;78.30
43842;DHT22;29495;49.970;20.842;2023-08-31T08:26:40;20.80;99.90
43842;DHT22;29495;49.970;20.842;2023-08-31T08:29:06;20.80;99.90
43842;DHT22;29495;49.970;20.842;2023-08-31T08:31:32;21.00;99.90
43842;DHT22;29495;49.970;20.842;2023-08-31T08:33:58;21.20;99.90
43842;DHT22;29495;49.970;20.842;2023-08-31T08:36:24;21.30;99.90
43842;DHT22;29495;49.970;20.842;2023-08-31T08:38:50;21.50;99.90
43842;DHT22;29495;49.970;20.842;2023-08-31T08:41:17;21.70;99.90
43842;DHT22;29495;49.970;20.842;2023-08-31T08:43:47;21.70;99.90
43842;DHT22;29495;49.970;20.842;2023-08-31T08:46:14;21.70;99.90
43842;DHT22;29495;49.970;20.842;2023-08-31T08:48:40;21.90;99.90
43842;DHT22;29495;49.970;20.842;2023-08-31T08:51:07;22.20;99.90
43842;DHT22;29495;49.970;20.842;2023-08-31T08:53:34;22.10;99.90
43842;DHT22;29495;49.970;20.842;2023-08-31T08:56:00;22.20;99.90
43842;DHT22;29495;49.970;20.842;2023-08-31T08:58:29;22.00;99.90
43842;DHT22;29495;49.970;20.842;2023-08-31T09:00:56;22.00;99.90
43842;DHT22;29495;49.970;20.842;2023-08-31T09:03:24;22.00;99.90
43842;DHT22;29495;49.970;20.842;2023-08-31T09:05:51;22.00;99.90
43842;DHT22;29495;49.970;20.842;2023-08-31T09:08:25;22.00;99.90
43842;DHT22;29495;49.970;20.842;2023-08-31T09:10:52;21.90;99.90
43842;DHT22;29495;49.970;20.842;2023-08-31T09:13:18;21.90;99.90
43842;DHT22;29495;49.970;20.842;2023-08-31T09:15:48;21.80;99.90
43842;DHT22;29495;49.970;20.842;2023-08-31T09:20:48;22.00;99.90
43842;DHT22;29495;49.970;20.842;2023-08-31T09:23:15;21.70;99.90
43842;DHT22;29495;49.970;20.842;2023-08-31T09:25:48;21.60;99.90
43842;DHT22;29495;49.970;20.842;2023-08-31T09:28:19;21.60;99.90
43842;DHT22;29495;49.970;20.842;2023-08-31T09:30:47;21.50;99.90
43842;DHT22;29495;49.970;20.842;2023-08-31T09:33:15;21.40;99.90
43842;DHT22;29495;49.970;20.842;2023-08-31T09:35:54;21.60;99.90
43842;DHT22;29495;49.970;20.842;2023-08-31T10:11:54;22.90;99.90
43842;DHT22;29495;49.970;20.842;2023-08-31T10:14:22;23.00;99.90
43842;DHT22;29495;49.970;20.842;2023-08-31T10:16:48;23.20;99.90
43842;DHT22;29495;49.970;20.842;2023-08-31T10:19:15;23.20;99.90
43842;DHT22;29495;49.970;20.842;2023-08-31T10:21:41;23.00;99.90
43842;DHT22;29495;49.970;20.842;2023-08-31T10:24:09;22.70;99.90
43842;DHT22;29495;49.970;20.842;2023-08-31T10:26:35;22.90;99.90
43842;DHT22;29495;49.970;20.842;2023-08-31T10:29:02;22.90;99.90
43842;DHT22;29495;49.970;20.842;2023-08-31T10:31:29;22.90;99.90
43842;DHT22;29495;49.970;20.842;2023-08-31T10:33:57;22.80;99.90
43842;DHT22;29495;49.970;20.842;2023-08-31T10:36:45;22.90;99.90
43842;DHT22;29495;49.970;20.842;2023-08-31T10:39:18;22.80;99.90
43842;DHT22;29495;49.970;20.842;2023-08-31T10:41:55;23.00;99.90
43842;DHT22;29495;49.970;20.842;2023-08-31T10:44:26;22.90;99.90
43842;DHT22;29495;49.970;20.842;2023-08-31T10:46:53;22.90;99.90
43842;DHT22;29495;49.970;20.842;2023-08-31T10:49:21;22.90;99.90
43842;DHT22;29495;49.970;20.842;2023-08-31T11:59:36;24.10;99.90
43842;DHT22;29495;49.970;20.842;2023-08-31T12:02:06;24.00;99.90
43842;DHT22;29495;49.970;20.842;2023-08-31T12:04:41;24.00;99.90
43842;DHT22;29495;49.970;20.842;2023-08-31T12:07:19;23.90;99.90
43842;DHT22;29495;49.970;20.842;2023-08-31T12:09:45;23.70;99.70
43842;DHT22;29495;49.970;20.842;2023-08-31T12:12:20;23.80;96.40
43842;DHT22;29495;49.970;20.842;2023-08-31T12:14:57;23.90;95.20
43842;DHT22;29495;49.970;20.842;2023-08-31T12:17:29;23.90;98.00
43842;DHT22;29495;49.970;20.842;2023-08-31T12:20:03;23.70;95.00
43842;DHT22;29495;49.970;20.842;2023-08-31T12:22:33;24.00;96.70
43842;DHT22;29495;49.970;20.842;2023-08-31T12:25:01;24.30;96.10
43842;DHT22;29495;49.970;20.842;2023-08-31T12:27:27;24.20;92.40
43842;DHT22;29495;49.970;20.842;2023-08-31T12:29:58;24.40;90.60
43842;DHT22;29495;49.970;20.842;2023-08-31T12:32:24;24.40;91.40
43842;DHT22;29495;49.970;20.842;2023-08-31T12:34:50;24.60;90.90
43842;DHT22;29495;49.970;20.842;2023-08-31T12:37:16;25.10;95.90
43842;DHT22;29495;49.970;20.842;2023-08-31T12:39:42;25.40;90.50
43842;DHT22;29495;49.970;20.842;2023-08-31T12:42:13;25.50;80.70
43842;DHT22;29495;49.970;20.842;2023-08-31T12:44:39;25.40;82.40
43842;DHT22;29495;49.970;20.842;2023-08-31T12:47:05;25.60;81.00
43842;DHT22;29495;49.970;20.842;2023-08-31T12:49:31;25.80;83.80
43842;DHT22;29495;49.970;20.842;2023-08-31T12:51:57;26.20;81.40
43842;DHT22;29495;49.970;20.842;2023-08-31T12:54:23;26.00;78.60
43842;DHT22;29495;49.970;20.842;2023-08-31T12:56:49;25.90;74.50
43842;DHT22;29495;49.970;20.842;2023-08-31T12:59:15;25.80;75.80
43842;DHT22;29495;49.970;20.842;2023-08-31T13:01:41;25.80;70.80
43842;DHT22;29495;49.970;20.842;2023-08-31T13:04:07;25.80;72.60
43842;DHT22;29495;49.970;20.842;2023-08-31T13:06:33;25.70;74.60
43842;DHT22;29495;49.970;20.842;2023-08-31T13:08:58;25.60;70.70
43842;DHT22;29495;49.970;20.842;2023-08-31T13:11:24;25.50;73.90
43842;DHT22;29495;49.970;20.842;2023-08-31T13:13:50;25.20;74.20
43842;DHT22;29495;49.970;20.842;2023-08-31T13:16:17;24.90;79.20
43842;DHT22;29495;49.970;20.842;2023-08-31T13:18:46;24.40;77.00
43842;DHT22;29495;49.970;20.842;2023-08-31T13:21:12;24.20;86.90
43842;DHT22;29495;49.970;20.842;2023-08-31T13:24:02;24.30;91.60
43842;DHT22;29495;49.970;20.842;2023-08-31T13:26:36;24.10;84.60
43842;DHT22;29495;49.970;20.842;2023-08-31T13:30:04;24.40;84.80
43842;DHT22;29495;49.970;20.842;2023-08-31T13:36:24;25.00;76.50
43842;DHT22;29495;49.970;20.842;2023-08-31T13:38:59;24.90;75.00
43842;DHT22;29495;49.970;20.842;2023-08-31T13:41:25;25.00;75.80
43842;DHT22;29495;49.970;20.842;2023-08-31T13:43:54;24.90;74.40
43842;DHT22;29495;49.970;20.842;2023-08-31T13:46:20;25.00;72.60
43842;DHT22;29495;49.970;20.842;2023-08-31T13:48:50;24.80;72.60
43842;DHT22;29495;49.970;20.842;2023-08-31T13:51:16;24.90;80.30
43842;DHT22;29495;49.970;20.842;2023-08-31T13:53:43;24.90;79.10
43842;DHT22;29495;49.970;20.842;2023-08-31T13:56:16;25.00;80.00
43842;DHT22;29495;49.970;20.842;2023-08-31T13:58:42;25.00;84.20
43842;DHT22;29495;49.970;20.842;2023-08-31T14:01:08;25.00;82.00
43842;DHT22;29495;49.970;20.842;2023-08-31T14:03:34;24.90;79.00
43842;DHT22;29495;49.970;20.842;2023-08-31T14:06:00;24.80;83.90
43842;DHT22;29495;49.970;20.842;2023-08-31T14:08:58;24.80;87.60
43842;DHT22;29495;49.970;20.842;2023-08-31T14:15:29;24.50;81.80
43842;DHT22;29495;49.970;20.842;2023-08-31T14:18:17;24.50;96.70
43842;DHT22;29495;49.970;20.842;2023-08-31T14:20:51;24.50;93.40
43842;DHT22;29495;49.970;20.842;2023-08-31T14:23:17;24.50;89.10
43842;DHT22;29495;49.970;20.842;2023-08-31T14:25:48;24.40;84.50
43842;DHT22;29495;49.970;20.842;2023-08-31T14:28:14;24.30;88.00
43842;DHT22;29495;49.970;20.842;2023-08-31T14:30:40;24.30;93.30
43842;DHT22;29495;49.970;20.842;2023-08-31T14:33:13;24.30;90.80
43842;DHT22;29495;49.970;20.842;2023-08-31T14:35:39;24.20;90.50
43842;DHT22;29495;49.970;20.842;2023-08-31T14:42:13;24.10;92.00
43842;DHT22;29495;49.970;20.842;2023-08-31T14:45:05;24.00;94.40
43842;DHT22;29495;49.970;20.842;2023-08-31T14:47:46;24.10;91.50
43842;DHT22;29495;49.970;20.842;2023-08-31T14:50:58;24.20;94.60
43842;DHT22;29495;49.970;20.842;2023-08-31T14:54:12;24.20;88.20
43842;DHT22;29495;49.970;20.842;2023-08-31T14:57:10;24.10;93.80
43842;DHT22;29495;49.970;20.842;2023-08-31T15:00:07;24.10;93.40
43842;DHT22;29495;49.970;20.842;2023-08-31T15:02:38;24.00;91.00
43842;DHT22;29495;49.970;20.842;2023-08-31T15:05:16;24.00;92.00
43842;DHT22;29495;49.970;20.842;2023-08-31T15:07:50;24.00;90.30
43842;DHT22;29495;49.970;20.842;2023-08-31T15:10:35;23.90;86.10
43842;DHT22;29495;49.970;20.842;2023-08-31T15:13:09;23.60;83.20
43842;DHT22;29495;49.970;20.842;2023-08-31T15:15:54;23.60;90.40
43842;DHT22;29495;49.970;20.842;2023-08-31T15:18:32;23.60;93.20
43842;DHT22;29495;49.970;20.842;2023-08-31T15:21:00;23.60;82.70
43842;DHT22;29495;49.970;20.842;2023-08-31T15:23:27;23.70;90.40
43842;DHT22;29495;49.970;20.842;2023-08-31T15:25:59;23.50;92.20
43842;DHT22;29495;49.970;20.842;2023-08-31T15:28:25;23.60;90.00
43842;DHT22;29495;49.970;20.842;2023-08-31T15:30:52;23.60;91.00
43842;DHT22;29495;49.970;20.842;2023-08-31T15:33:18;23.70;92.40
43842;DHT22;29495;49.970;20.842;2023-08-31T15:35:44;23.50;90.00
43842;DHT22;29495;49.970;20.842;2023-08-31T15:38:10;23.60;95.30
43842;DHT22;29495;49.970;20.842;2023-08-31T15:40:36;23.60;91.80
43842;DHT22;29495;49.970;20.842;2023-08-31T15:43:02;23.50;96.90
43842;DHT22;29495;49.970;20.842;2023-08-31T15:45:28;23.40;95.40
43842;DHT22;29495;49.970;20.842;2023-08-31T15:47:54;23.30;91.90
43842;DHT22;29495;49.970;20.842;2023-08-31T15:50:20;23.10;99.90
43842;DHT22;29495;49.970;20.842;2023-08-31T15:52:46;23.10;99.90
43842;DHT22;29495;49.970;20.842;2023-08-31T15:55:12;23.10;99.90
43842;DHT22;29495;49.970;20.842;2023-08-31T15:57:54;23.20;99.90
43842;DHT22;29495;49.970;20.842;2023-08-31T16:00:27;23.00;99.90
43842;DHT22;29495;49.970;20.842;2023-08-31T16:02:55;23.00;99.80
43842;DHT22;29495;49.970;20.842;2023-08-31T16:05:21;22.90;99.90
43842;DHT22;29495;49.970;20.842;2023-08-31T16:07:47;22.70;99.90
43842;DHT22;29495;49.970;20.842;2023-08-31T16:10:12;22.60;99.90
43842;DHT22;29495;49.970;20.842;2023-08-31T16:12:39;22.60;99.90
43842;DHT22;29495;49.970;20.842;2023-08-31T16:15:06;22.40;99.90
43842;DHT22;29495;49.970;20.842;2023-08-31T16:17:32;22.20;99.90
43842;DHT22;29495;49.970;20.842;2023-08-31T16:19:58;22.10;99.90
43842;DHT22;29495;49.970;20.842;2023-08-31T16:22:24;22.00;99.90
43842;DHT22;29495;49.970;20.842;2023-08-31T16:24:50;21.70;99.90
43842;DHT22;29495;49.970;20.842;2023-08-31T16:27:16;21.50;99.90
43842;DHT22;29495;49.970;20.842;2023-08-31T16:29:42;21.40;99.90
43842;DHT22;29495;49.970;20.842;2023-08-31T16:32:08;21.10;99.90
43842;DHT22;29495;49.970;20.842;2023-08-31T16:34:34;20.80;99.90
43842;DHT22;29495;49.970;20.842;2023-08-31T16:37:00;20.60;99.90
43842;DHT22;29495;49.970;20.842;2023-08-31T16:39:26;20.50;99.90
43842;DHT22;29495;49.970;20.842;2023-08-31T16:41:52;20.40;99.90
43842;DHT22;29495;49.970;20.842;2023-08-31T16:44:45;20.20;99.90
43842;DHT22;29495;49.970;20.842;2023-08-31T17:01:26;19.90;99.90
43842;DHT22;29495;49.970;20.842;2023-08-31T17:03:52;20.00;99.90
43842;DHT22;29495;49.970;20.842;2023-08-31T17:06:18;20.00;99.90
43842;DHT22;29495;49.970;20.842;2023-08-31T17:08:44;19.90;99.90
43842;DHT22;29495;49.970;20.842;2023-08-31T17:11:10;20.00;99.90
43842;DHT22;29495;49.970;20.842;2023-08-31T17:13:37;20.00;99.90
43842;DHT22;29495;49.970;20.842;2023-08-31T17:16:10;20.00;99.90
43842;DHT22;29495;49.970;20.842;2023-08-31T17:18:37;19.80;99.90
43842;DHT22;29495;49.970;20.842;2023-08-31T17:21:03;19.80;99.90
43842;DHT22;29495;49.970;20.842;2023-08-31T17:23:32;19.80;99.90
43842;DHT22;29495;49.970;20.842;2023-08-31T17:25:58;19.80;99.90
43842;DHT22;29495;49.970;20.842;2023-08-31T17:28:24;19.70;99.90
43842;DHT22;29495;49.970;20.842;2023-08-31T17:30:50;19.70;99.90
43842;DHT22;29495;49.970;20.842;2023-08-31T17:33:17;19.60;99.90
43842;DHT22;29495;49.970;20.842;2023-08-31T17:35:43;19.60;99.90
